sensor_id;sensor_type;location;lat;lon;timestamp;pressure;altitude;pressure_sealevel;temperature;humidity
37170;BME280;23062;13.952;100.608;2023-02-08T00:01:23;1011.25;;;29.78;66.79
37170;BME280;23062;13.952;100.608;2023-02-08T00:05:49;1011.29;;;29.76;66.88
37170;BME280;23062;13.952;100.608;2023-02-08T00:10:14;1011.38;;;29.78;66.90
37170;BME280;23062;13.952;100.608;2023-02-08T00:14:40;1011.42;;;29.78;66.99
37170;BME280;23062;13.952;100.608;2023-02-08T00:19:05;1011.43;;;29.76;67.02
37170;BME280;23062;13.952;100.608;2023-02-08T00:23:30;1011.53;;;29.76;67.17
37170;BME280;23062;13.952;100.608;2023-02-08T00:27:56;1011.59;;;29.78;67.27
37170;BME280;23062;13.952;100.608;2023-02-08T00:32:22;1011.66;;;29.78;67.38
37170;BME280;23062;13.952;100.608;2023-02-08T00:36:47;1011.71;;;29.79;67.38
37170;BME280;23062;13.952;100.608;2023-02-08T00:41:13;1011.76;;;29.81;67.50
37170;BME280;23062;13.952;100.608;2023-02-08T00:45:38;1011.75;;;29.81;67.54
37170;BME280;23062;13.952;100.608;2023-02-08T00:50:04;1011.83;;;29.82;67.48
37170;BME280;23062;13.952;100.608;2023-02-08T00:54:30;1011.83;;;29.85;67.65
37170;BME280;23062;13.952;100.608;2023-02-08T00:58:55;1011.86;;;29.85;67.66
37170;BME280;23062;13.952;100.608;2023-02-08T01:03:23;1011.89;;;29.84;67.69
37170;BME280;23062;13.952;100.608;2023-02-08T01:07:51;1011.93;;;29.86;67.69
37170;BME280;23062;13.952;100.608;2023-02-08T01:12:19;1011.94;;;29.88;67.62
37170;BME280;23062;13.952;100.608;2023-02-08T01:16:44;1012.07;;;29.87;67.83
37170;BME280;23062;13.952;100.608;2023-02-08T01:21:14;1012.09;;;29.81;68.30
37170;BME280;23062;13.952;100.608;2023-02-08T01:25:39;1012.15;;;29.68;68.89
37170;BME280;23062;13.952;100.608;2023-02-08T01:30:05;1012.14;;;29.73;68.68
37170;BME280;23062;13.952;100.608;2023-02-08T01:34:31;1012.15;;;29.75;68.54
37170;BME280;23062;13.952;100.608;2023-02-08T01:38:56;1012.18;;;29.76;68.23
37170;BME280;23062;13.952;100.608;2023-02-08T01:43:27;1012.27;;;29.69;69.72
37170;BME280;23062;13.952;100.608;2023-02-08T01:48:02;1012.25;;;29.62;68.88
37170;BME280;23062;13.952;100.608;2023-02-08T01:52:30;1012.35;;;29.65;68.06
37170;BME280;23062;13.952;100.608;2023-02-08T01:56:55;1012.39;;;29.65;67.52
37170;BME280;23062;13.952;100.608;2023-02-08T02:01:22;1012.40;;;29.69;66.96
37170;BME280;23062;13.952;100.608;2023-02-08T02:05:51;1012.48;;;29.81;66.70
37170;BME280;23062;13.952;100.608;2023-02-08T02:10:27;1012.51;;;29.87;66.08
37170;BME280;23062;13.952;100.608;2023-02-08T02:14:52;1012.55;;;29.90;65.63
37170;BME280;23062;13.952;100.608;2023-02-08T02:48:00;1012.63;;;30.22;63.78
37170;BME280;23062;13.952;100.608;2023-02-08T02:52:30;1012.60;;;30.36;63.40
37170;BME280;23062;13.952;100.608;2023-02-08T02:56:55;1012.68;;;30.39;63.49
37170;BME280;23062;13.952;100.608;2023-02-08T03:01:25;1012.57;;;30.43;62.86
37170;BME280;23062;13.952;100.608;2023-02-08T03:05:56;1012.55;;;30.44;63.13
37170;BME280;23062;13.952;100.608;2023-02-08T03:10:29;1012.47;;;30.41;63.05
37170;BME280;23062;13.952;100.608;2023-02-08T03:15:21;1012.48;;;30.47;61.96
37170;BME280;23062;13.952;100.608;2023-02-08T03:24:37;1012.31;;;30.53;61.28
37170;BME280;23062;13.952;100.608;2023-02-08T03:33:52;1012.17;;;30.52;61.44
37170;BME280;23062;13.952;100.608;2023-02-08T03:38:30;1012.14;;;30.62;60.74
37170;BME280;23062;13.952;100.608;2023-02-08T03:42:56;1012.10;;;30.61;61.17
37170;BME280;23062;13.952;100.608;2023-02-08T03:47:25;1012.03;;;30.70;60.20
37170;BME280;23062;13.952;100.608;2023-02-08T03:51:53;1011.95;;;30.71;60.00
37170;BME280;23062;13.952;100.608;2023-02-08T03:56:29;1011.87;;;30.69;60.14
37170;BME280;23062;13.952;100.608;2023-02-08T04:01:02;1011.74;;;30.71;60.28
37170;BME280;23062;13.952;100.608;2023-02-08T04:05:25;1011.69;;;30.67;60.74
37170;BME280;23062;13.952;100.608;2023-02-08T04:09:51;1011.64;;;30.83;59.54
37170;BME280;23062;13.952;100.608;2023-02-08T04:14:16;1011.59;;;30.81;59.50
37170;BME280;23062;13.952;100.608;2023-02-08T04:18:42;1011.50;;;30.95;58.52
37170;BME280;23062;13.952;100.608;2023-02-08T04:23:07;1011.35;;;30.91;58.81
37170;BME280;23062;13.952;100.608;2023-02-08T04:27:36;1011.24;;;30.86;59.09
37170;BME280;23062;13.952;100.608;2023-02-08T04:32:02;1011.18;;;31.02;58.27
37170;BME280;23062;13.952;100.608;2023-02-08T04:36:28;1011.07;;;30.96;58.65
37170;BME280;23062;13.952;100.608;2023-02-08T04:40:56;1011.01;;;31.11;58.12
37170;BME280;23062;13.952;100.608;2023-02-08T04:45:31;1010.94;;;31.15;56.98
37170;BME280;23062;13.952;100.608;2023-02-08T04:49:56;1010.91;;;31.22;56.30
37170;BME280;23062;13.952;100.608;2023-02-08T04:54:22;1010.82;;;31.11;56.61
37170;BME280;23062;13.952;100.608;2023-02-08T04:58:50;1010.65;;;31.10;56.51
37170;BME280;23062;13.952;100.608;2023-02-08T05:03:15;1010.49;;;31.22;56.35
37170;BME280;23062;13.952;100.608;2023-02-08T05:07:40;1010.42;;;31.31;55.86
37170;BME280;23062;13.952;100.608;2023-02-08T05:12:06;1010.32;;;31.58;54.07
37170;BME280;23062;13.952;100.608;2023-02-08T05:16:31;1010.28;;;31.39;54.85
37170;BME280;23062;13.952;100.608;2023-02-08T05:21:00;1010.08;;;31.48;53.35
37170;BME280;23062;13.952;100.608;2023-02-08T05:25:27;1010.01;;;31.40;53.30
37170;BME280;23062;13.952;100.608;2023-02-08T05:29:52;1009.87;;;31.34;53.81
37170;BME280;23062;13.952;100.608;2023-02-08T05:34:17;1009.78;;;31.37;53.98
37170;BME280;23062;13.952;100.608;2023-02-08T05:38:42;1009.67;;;31.37;54.17
37170;BME280;23062;13.952;100.608;2023-02-08T05:43:08;1009.57;;;31.47;53.36
37170;BME280;23062;13.952;100.608;2023-02-08T05:47:33;1009.50;;;31.48;53.24
37170;BME280;23062;13.952;100.608;2023-02-08T05:52:01;1009.42;;;31.38;54.03
37170;BME280;23062;13.952;100.608;2023-02-08T05:56:28;1009.38;;;31.41;54.10
37170;BME280;23062;13.952;100.608;2023-02-08T06:00:53;1009.24;;;31.48;53.71
37170;BME280;23062;13.952;100.608;2023-02-08T06:05:23;1009.11;;;31.44;54.01
37170;BME280;23062;13.952;100.608;2023-02-08T06:09:48;1008.97;;;31.38;54.55
37170;BME280;23062;13.952;100.608;2023-02-08T06:14:13;1008.91;;;31.34;54.65
37170;BME280;23062;13.952;100.608;2023-02-08T06:18:39;1008.86;;;31.50;53.96
37170;BME280;23062;13.952;100.608;2023-02-08T06:23:04;1008.71;;;31.53;53.71
37170;BME280;23062;13.952;100.608;2023-02-08T06:27:33;1008.65;;;31.50;54.03
37170;BME280;23062;13.952;100.608;2023-02-08T06:32:00;1008.53;;;31.51;53.89
37170;BME280;23062;13.952;100.608;2023-02-08T06:36:25;1008.44;;;31.50;54.10
37170;BME280;23062;13.952;100.608;2023-02-08T06:40:57;1008.36;;;31.53;54.01
37170;BME280;23062;13.952;100.608;2023-02-08T06:45:22;1008.23;;;31.72;52.45
37170;BME280;23062;13.952;100.608;2023-02-08T06:49:48;1008.15;;;31.86;51.31
37170;BME280;23062;13.952;100.608;2023-02-08T06:54:14;1008.09;;;31.89;50.71
37170;BME280;23062;13.952;100.608;2023-02-08T06:58:39;1008.02;;;31.73;51.29
37170;BME280;23062;13.952;100.608;2023-02-08T07:03:04;1007.90;;;31.63;51.91
37170;BME280;23062;13.952;100.608;2023-02-08T07:07:29;1007.77;;;31.51;52.42
37170;BME280;23062;13.952;100.608;2023-02-08T07:11:58;1007.67;;;31.60;52.06
37170;BME280;23062;13.952;100.608;2023-02-08T07:16:28;1007.52;;;31.66;51.64
37170;BME280;23062;13.952;100.608;2023-02-08T07:20:53;1007.56;;;31.80;50.87
37170;BME280;23062;13.952;100.608;2023-02-08T07:25:20;1007.46;;;31.80;50.67
37170;BME280;23062;13.952;100.608;2023-02-08T07:29:45;1007.41;;;31.91;50.19
37170;BME280;23062;13.952;100.608;2023-02-08T07:34:11;1007.39;;;31.70;51.14
37170;BME280;23062;13.952;100.608;2023-02-08T07:38:37;1007.38;;;31.63;51.61
37170;BME280;23062;13.952;100.608;2023-02-08T07:43:06;1007.30;;;31.65;51.41
37170;BME280;23062;13.952;100.608;2023-02-08T07:47:31;1007.28;;;31.71;51.24
37170;BME280;23062;13.952;100.608;2023-02-08T07:51:58;1007.21;;;31.80;51.65
37170;BME280;23062;13.952;100.608;2023-02-08T07:56:24;1007.16;;;31.68;52.32
37170;BME280;23062;13.952;100.608;2023-02-08T08:00:49;1007.18;;;31.81;52.23
37170;BME280;23062;13.952;100.608;2023-02-08T08:05:15;1007.12;;;31.87;52.09
37170;BME280;23062;13.952;100.608;2023-02-08T08:09:47;1007.05;;;31.88;52.18
37170;BME280;23062;13.952;100.608;2023-02-08T08:14:14;1007.03;;;31.97;51.82
37170;BME280;23062;13.952;100.608;2023-02-08T08:18:39;1007.01;;;31.97;51.95
37170;BME280;23062;13.952;100.608;2023-02-08T08:23:05;1007.06;;;31.98;51.83
37170;BME280;23062;13.952;100.608;2023-02-08T08:27:31;1007.01;;;32.04;51.62
37170;BME280;23062;13.952;100.608;2023-02-08T08:31:57;1006.98;;;31.91;52.21
37170;BME280;23062;13.952;100.608;2023-02-08T08:36:22;1006.90;;;31.85;52.60
37170;BME280;23062;13.952;100.608;2023-02-08T08:40:50;1006.87;;;31.80;52.98
37170;BME280;23062;13.952;100.608;2023-02-08T08:45:15;1006.89;;;31.83;52.71
37170;BME280;23062;13.952;100.608;2023-02-08T08:49:48;1006.86;;;31.89;52.78
37170;BME280;23062;13.952;100.608;2023-02-08T08:54:13;1006.81;;;31.91;52.62
37170;BME280;23062;13.952;100.608;2023-02-08T08:58:38;1006.80;;;31.87;52.63
37170;BME280;23062;13.952;100.608;2023-02-08T09:03:05;1006.81;;;31.90;52.46
37170;BME280;23062;13.952;100.608;2023-02-08T09:07:31;1006.74;;;31.90;52.99
37170;BME280;23062;13.952;100.608;2023-02-08T09:11:58;1006.73;;;31.89;53.15
37170;BME280;23062;13.952;100.608;2023-02-08T09:16:24;1006.74;;;31.72;53.50
37170;BME280;23062;13.952;100.608;2023-02-08T09:20:50;1006.78;;;31.61;53.77
37170;BME280;23062;13.952;100.608;2023-02-08T09:25:15;1006.75;;;31.63;53.72
37170;BME280;23062;13.952;100.608;2023-02-08T09:29:43;1006.86;;;31.69;53.59
37170;BME280;23062;13.952;100.608;2023-02-08T09:34:13;1006.86;;;31.66;53.72
37170;BME280;23062;13.952;100.608;2023-02-08T09:38:38;1006.91;;;31.64;53.86
37170;BME280;23062;13.952;100.608;2023-02-08T09:43:17;1006.94;;;31.74;52.81
37170;BME280;23062;13.952;100.608;2023-02-08T09:52:25;1007.01;;;31.67;52.93
37170;BME280;23062;13.952;100.608;2023-02-08T09:56:51;1006.99;;;31.69;52.58
37170;BME280;23062;13.952;100.608;2023-02-08T10:01:20;1006.98;;;31.70;52.21
37170;BME280;23062;13.952;100.608;2023-02-08T10:05:44;1007.09;;;31.68;52.29
37170;BME280;23062;13.952;100.608;2023-02-08T10:24:46;1007.27;;;31.64;51.70
37170;BME280;23062;13.952;100.608;2023-02-08T10:38:41;1007.30;;;31.81;50.52
37170;BME280;23062;13.952;100.608;2023-02-08T10:47:52;1007.30;;;31.72;50.45
37170;BME280;23062;13.952;100.608;2023-02-08T10:52:17;1007.34;;;31.64;50.93
37170;BME280;23062;13.952;100.608;2023-02-08T10:57:02;1007.40;;;31.62;50.89
37170;BME280;23062;13.952;100.608;2023-02-08T11:01:28;1007.46;;;31.61;51.12
37170;BME280;23062;13.952;100.608;2023-02-08T11:05:54;1007.51;;;31.59;51.21
37170;BME280;23062;13.952;100.608;2023-02-08T11:10:22;1007.59;;;31.60;50.89
37170;BME280;23062;13.952;100.608;2023-02-08T11:14:53;1007.58;;;31.59;51.06
37170;BME280;23062;13.952;100.608;2023-02-08T11:19:35;1007.61;;;31.62;50.38
37170;BME280;23062;13.952;100.608;2023-02-08T11:23:54;1007.60;;;31.62;50.15
37170;BME280;23062;13.952;100.608;2023-02-08T11:28:26;1007.63;;;31.58;49.88
37170;BME280;23062;13.952;100.608;2023-02-08T11:37:35;1007.72;;;31.53;50.13
37170;BME280;23062;13.952;100.608;2023-02-08T11:42:01;1007.81;;;31.49;50.25
37170;BME280;23062;13.952;100.608;2023-02-08T11:46:29;1007.90;;;31.47;50.53
37170;BME280;23062;13.952;100.608;2023-02-08T11:50:57;1008.01;;;31.47;50.90
37170;BME280;23062;13.952;100.608;2023-02-08T11:55:22;1008.04;;;31.47;51.56
37170;BME280;23062;13.952;100.608;2023-02-08T11:59:50;1008.15;;;31.51;51.90
37170;BME280;23062;13.952;100.608;2023-02-08T12:04:18;1008.15;;;31.49;52.37
37170;BME280;23062;13.952;100.608;2023-02-08T12:08:59;1008.23;;;31.46;52.84
37170;BME280;23062;13.952;100.608;2023-02-08T12:13:33;1008.30;;;31.45;53.15
37170;BME280;23062;13.952;100.608;2023-02-08T12:22:38;1008.40;;;31.41;53.66
37170;BME280;23062;13.952;100.608;2023-02-08T12:31:52;1008.54;;;31.34;54.17
37170;BME280;23062;13.952;100.608;2023-02-08T12:54:57;1008.95;;;31.32;55.35
37170;BME280;23062;13.952;100.608;2023-02-08T13:03:56;1009.04;;;31.31;55.61
37170;BME280;23062;13.952;100.608;2023-02-08T13:12:56;1009.18;;;31.35;55.44
37170;BME280;23062;13.952;100.608;2023-02-08T13:17:40;1009.29;;;31.34;55.39
37170;BME280;23062;13.952;100.608;2023-02-08T13:22:03;1009.30;;;31.34;55.37
37170;BME280;23062;13.952;100.608;2023-02-08T13:26:31;1009.32;;;31.34;55.47
37170;BME280;23062;13.952;100.608;2023-02-08T13:31:10;1009.33;;;31.34;55.50
37170;BME280;23062;13.952;100.608;2023-02-08T13:35:32;1009.41;;;31.33;55.71
37170;BME280;23062;13.952;100.608;2023-02-08T13:44:38;1009.46;;;31.32;55.87
37170;BME280;23062;13.952;100.608;2023-02-08T13:49:06;1009.46;;;31.31;55.94
37170;BME280;23062;13.952;100.608;2023-02-08T14:03:23;1009.47;;;31.29;56.18
37170;BME280;23062;13.952;100.608;2023-02-08T14:07:51;1009.47;;;31.30;56.23
37170;BME280;23062;13.952;100.608;2023-02-08T14:12:27;1009.50;;;31.30;56.35
37170;BME280;23062;13.952;100.608;2023-02-08T14:21:36;1009.56;;;31.27;56.55
37170;BME280;23062;13.952;100.608;2023-02-08T14:26:06;1009.61;;;31.26;56.58
37170;BME280;23062;13.952;100.608;2023-02-08T14:30:35;1009.60;;;31.23;56.69
37170;BME280;23062;13.952;100.608;2023-02-08T14:35:04;1009.63;;;31.26;56.67
37170;BME280;23062;13.952;100.608;2023-02-08T14:39:37;1009.66;;;31.24;56.75
37170;BME280;23062;13.952;100.608;2023-02-08T14:48:49;1009.77;;;31.24;56.84
37170;BME280;23062;13.952;100.608;2023-02-08T14:53:26;1009.78;;;31.24;56.83
37170;BME280;23062;13.952;100.608;2023-02-08T14:57:48;1009.82;;;31.21;56.91
37170;BME280;23062;13.952;100.608;2023-02-08T15:02:18;1009.84;;;31.22;56.94
37170;BME280;23062;13.952;100.608;2023-02-08T15:06:56;1009.92;;;31.23;56.94
37170;BME280;23062;13.952;100.608;2023-02-08T15:11:27;1010.00;;;31.20;57.08
37170;BME280;23062;13.952;100.608;2023-02-08T15:15:54;1010.04;;;31.24;57.06
37170;BME280;23062;13.952;100.608;2023-02-08T15:20:23;1010.01;;;31.23;57.12
37170;BME280;23062;13.952;100.608;2023-02-08T15:25:01;1010.07;;;31.23;57.24
37170;BME280;23062;13.952;100.608;2023-02-08T15:29:26;1010.05;;;31.22;57.29
37170;BME280;23062;13.952;100.608;2023-02-08T15:33:53;1010.07;;;31.19;57.63
37170;BME280;23062;13.952;100.608;2023-02-08T15:38:22;1010.07;;;31.16;57.86
37170;BME280;23062;13.952;100.608;2023-02-08T15:43:01;1010.09;;;31.14;58.09
37170;BME280;23062;13.952;100.608;2023-02-08T15:47:35;1010.09;;;31.16;58.22
37170;BME280;23062;13.952;100.608;2023-02-08T15:52:04;1010.06;;;31.17;58.09
37170;BME280;23062;13.952;100.608;2023-02-08T15:56:31;1010.05;;;31.20;58.05
37170;BME280;23062;13.952;100.608;2023-02-08T16:01:01;1010.00;;;31.16;58.18
37170;BME280;23062;13.952;100.608;2023-02-08T16:05:31;1009.98;;;31.16;58.24
37170;BME280;23062;13.952;100.608;2023-02-08T16:10:00;1010.01;;;31.14;58.36
37170;BME280;23062;13.952;100.608;2023-02-08T16:14:28;1010.01;;;31.14;58.43
37170;BME280;23062;13.952;100.608;2023-02-08T16:18:59;1010.01;;;31.14;58.46
37170;BME280;23062;13.952;100.608;2023-02-08T16:23:29;1010.03;;;31.13;58.46
37170;BME280;23062;13.952;100.608;2023-02-08T16:27:55;1010.07;;;31.13;58.41
37170;BME280;23062;13.952;100.608;2023-02-08T16:32:34;1010.07;;;31.12;58.51
37170;BME280;23062;13.952;100.608;2023-02-08T16:37:03;1010.07;;;31.10;58.73
37170;BME280;23062;13.952;100.608;2023-02-08T16:41:54;1010.07;;;31.08;58.79
37170;BME280;23062;13.952;100.608;2023-02-08T16:50:40;1010.03;;;31.06;58.99
37170;BME280;23062;13.952;100.608;2023-02-08T16:55:06;1010.07;;;31.08;58.85
37170;BME280;23062;13.952;100.608;2023-02-08T16:59:33;1010.04;;;31.05;59.19
37170;BME280;23062;13.952;100.608;2023-02-08T17:04:02;1009.99;;;31.05;59.31
37170;BME280;23062;13.952;100.608;2023-02-08T17:08:28;1010.04;;;31.03;59.42
37170;BME280;23062;13.952;100.608;2023-02-08T17:12:53;1010.02;;;31.07;59.39
37170;BME280;23062;13.952;100.608;2023-02-08T17:17:22;1010.04;;;30.93;60.04
37170;BME280;23062;13.952;100.608;2023-02-08T17:21:54;1010.05;;;31.03;59.26
37170;BME280;23062;13.952;100.608;2023-02-08T17:26:26;1010.04;;;31.02;59.76
37170;BME280;23062;13.952;100.608;2023-02-08T17:30:49;1010.03;;;30.97;60.04
37170;BME280;23062;13.952;100.608;2023-02-08T17:35:16;1010.05;;;31.01;59.75
37170;BME280;23062;13.952;100.608;2023-02-08T17:39:41;1010.01;;;31.00;60.39
37170;BME280;23062;13.952;100.608;2023-02-08T17:44:09;1010.07;;;30.97;60.44
37170;BME280;23062;13.952;100.608;2023-02-08T17:48:37;1010.08;;;30.93;60.70
37170;BME280;23062;13.952;100.608;2023-02-08T17:53:03;1010.02;;;30.98;60.72
37170;BME280;23062;13.952;100.608;2023-02-08T17:57:30;1010.05;;;30.97;60.82
37170;BME280;23062;13.952;100.608;2023-02-08T18:01:56;1009.97;;;30.98;61.00
37170;BME280;23062;13.952;100.608;2023-02-08T18:06:28;1009.97;;;30.95;60.97
37170;BME280;23062;13.952;100.608;2023-02-08T18:10:54;1009.94;;;30.95;61.22
37170;BME280;23062;13.952;100.608;2023-02-08T18:15:22;1009.88;;;30.94;61.41
37170;BME280;23062;13.952;100.608;2023-02-08T18:19:49;1009.91;;;30.93;61.68
37170;BME280;23062;13.952;100.608;2023-02-08T18:24:15;1009.90;;;30.92;61.49
37170;BME280;23062;13.952;100.608;2023-02-08T18:28:41;1009.76;;;30.92;61.37
37170;BME280;23062;13.952;100.608;2023-02-08T18:33:07;1009.69;;;30.93;61.17
37170;BME280;23062;13.952;100.608;2023-02-08T18:37:34;1009.69;;;30.94;61.18
37170;BME280;23062;13.952;100.608;2023-02-08T18:42:02;1009.69;;;30.93;60.67
37170;BME280;23062;13.952;100.608;2023-02-08T18:46:28;1009.70;;;30.91;61.46
37170;BME280;23062;13.952;100.608;2023-02-08T18:50:55;1009.63;;;30.89;61.43
37170;BME280;23062;13.952;100.608;2023-02-08T18:55:22;1009.62;;;30.93;61.29
37170;BME280;23062;13.952;100.608;2023-02-08T18:59:48;1009.57;;;30.89;61.34
37170;BME280;23062;13.952;100.608;2023-02-08T19:04:17;1009.54;;;30.90;61.24
37170;BME280;23062;13.952;100.608;2023-02-08T19:08:44;1009.52;;;30.91;61.20
37170;BME280;23062;13.952;100.608;2023-02-08T19:13:13;1009.47;;;30.90;61.41
37170;BME280;23062;13.952;100.608;2023-02-08T19:17:39;1009.48;;;30.86;61.65
37170;BME280;23062;13.952;100.608;2023-02-08T19:22:04;1009.47;;;30.83;61.60
37170;BME280;23062;13.952;100.608;2023-02-08T19:26:32;1009.44;;;30.86;61.36
37170;BME280;23062;13.952;100.608;2023-02-08T19:31:07;1009.44;;;30.84;61.80
37170;BME280;23062;13.952;100.608;2023-02-08T19:35:38;1009.38;;;30.89;61.48
37170;BME280;23062;13.952;100.608;2023-02-08T19:40:11;1009.39;;;30.91;61.26
37170;BME280;23062;13.952;100.608;2023-02-08T19:44:38;1009.33;;;30.87;61.52
37170;BME280;23062;13.952;100.608;2023-02-08T19:49:04;1009.25;;;30.85;61.71
37170;BME280;23062;13.952;100.608;2023-02-08T19:53:29;1009.28;;;30.87;61.60
37170;BME280;23062;13.952;100.608;2023-02-08T19:57:55;1009.32;;;30.88;61.64
37170;BME280;23062;13.952;100.608;2023-02-08T20:02:21;1009.28;;;30.89;61.74
37170;BME280;23062;13.952;100.608;2023-02-08T20:06:50;1009.28;;;30.85;61.78
37170;BME280;23062;13.952;100.608;2023-02-08T20:11:21;1009.21;;;30.84;62.10
37170;BME280;23062;13.952;100.608;2023-02-08T20:15:47;1009.15;;;30.85;61.92
37170;BME280;23062;13.952;100.608;2023-02-08T20:20:19;1009.14;;;30.84;62.05
37170;BME280;23062;13.952;100.608;2023-02-08T20:24:45;1009.14;;;30.84;62.05
37170;BME280;23062;13.952;100.608;2023-02-08T20:29:10;1009.10;;;30.82;62.35
37170;BME280;23062;13.952;100.608;2023-02-08T20:33:37;1009.14;;;30.80;62.50
37170;BME280;23062;13.952;100.608;2023-02-08T20:38:02;1009.11;;;30.84;62.33
37170;BME280;23062;13.952;100.608;2023-02-08T20:42:28;1009.08;;;30.82;62.46
37170;BME280;23062;13.952;100.608;2023-02-08T20:46:58;1009.08;;;30.84;62.41
37170;BME280;23062;13.952;100.608;2023-02-08T20:51:25;1009.09;;;30.83;62.47
37170;BME280;23062;13.952;100.608;2023-02-08T20:55:53;1009.08;;;30.82;62.31
37170;BME280;23062;13.952;100.608;2023-02-08T21:00:18;1009.13;;;30.85;62.33
37170;BME280;23062;13.952;100.608;2023-02-08T21:04:50;1009.14;;;30.82;62.41
37170;BME280;23062;13.952;100.608;2023-02-08T21:09:17;1009.23;;;30.82;62.35
37170;BME280;23062;13.952;100.608;2023-02-08T21:13:46;1009.18;;;30.73;62.47
37170;BME280;23062;13.952;100.608;2023-02-08T21:18:12;1009.21;;;30.66;62.71
37170;BME280;23062;13.952;100.608;2023-02-08T21:22:37;1009.28;;;30.63;62.79
37170;BME280;23062;13.952;100.608;2023-02-08T21:27:04;1009.35;;;30.59;63.03
37170;BME280;23062;13.952;100.608;2023-02-08T21:31:30;1009.38;;;30.58;63.12
37170;BME280;23062;13.952;100.608;2023-02-08T21:36:03;1009.38;;;30.54;63.20
37170;BME280;23062;13.952;100.608;2023-02-08T21:40:32;1009.43;;;30.48;63.65
37170;BME280;23062;13.952;100.608;2023-02-08T21:44:57;1009.42;;;30.51;63.59
37170;BME280;23062;13.952;100.608;2023-02-08T21:49:22;1009.44;;;30.53;63.63
37170;BME280;23062;13.952;100.608;2023-02-08T21:54:14;1009.53;;;30.03;65.39
37170;BME280;23062;13.952;100.608;2023-02-08T21:58:51;1009.55;;;29.45;67.80
37170;BME280;23062;13.952;100.608;2023-02-08T22:03:16;1009.62;;;29.37;68.27
37170;BME280;23062;13.952;100.608;2023-02-08T22:07:53;1009.63;;;29.31;68.35
37170;BME280;23062;13.952;100.608;2023-02-08T22:12:22;1009.63;;;29.36;68.20
37170;BME280;23062;13.952;100.608;2023-02-08T22:16:47;1009.68;;;29.29;68.32
37170;BME280;23062;13.952;100.608;2023-02-08T22:21:20;1009.69;;;29.30;68.37
37170;BME280;23062;13.952;100.608;2023-02-08T22:25:45;1009.77;;;29.24;68.69
37170;BME280;23062;13.952;100.608;2023-02-08T22:30:13;1009.80;;;29.24;68.81
37170;BME280;23062;13.952;100.608;2023-02-08T22:34:39;1009.83;;;29.23;68.83
37170;BME280;23062;13.952;100.608;2023-02-08T22:39:04;1009.84;;;29.22;68.73
37170;BME280;23062;13.952;100.608;2023-02-08T22:43:30;1009.92;;;29.53;67.96
37170;BME280;23062;13.952;100.608;2023-02-08T22:47:55;1009.97;;;29.87;66.70
37170;BME280;23062;13.952;100.608;2023-02-08T22:52:21;1010.02;;;30.02;65.89
37170;BME280;23062;13.952;100.608;2023-02-08T22:56:48;1010.01;;;30.07;65.29
37170;BME280;23062;13.952;100.608;2023-02-08T23:01:15;1010.05;;;30.07;65.17
37170;BME280;23062;13.952;100.608;2023-02-08T23:05:48;1010.09;;;30.14;64.88
37170;BME280;23062;13.952;100.608;2023-02-08T23:10:14;1010.15;;;30.11;64.96
37170;BME280;23062;13.952;100.608;2023-02-08T23:14:41;1010.10;;;30.09;65.07
37170;BME280;23062;13.952;100.608;2023-02-08T23:19:06;1010.17;;;30.13;64.98
37170;BME280;23062;13.952;100.608;2023-02-08T23:23:31;1010.23;;;30.08;65.20
37170;BME280;23062;13.952;100.608;2023-02-08T23:27:57;1010.27;;;30.11;65.12
37170;BME280;23062;13.952;100.608;2023-02-08T23:32:23;1010.32;;;30.08;65.20
37170;BME280;23062;13.952;100.608;2023-02-08T23:36:49;1010.35;;;30.08;65.26
37170;BME280;23062;13.952;100.608;2023-02-08T23:41:17;1010.40;;;30.09;65.26
37170;BME280;23062;13.952;100.608;2023-02-08T23:45:42;1010.47;;;30.08;65.30
37170;BME280;23062;13.952;100.608;2023-02-08T23:50:09;1010.51;;;30.11;65.29
37170;BME280;23062;13.952;100.608;2023-02-08T23:54:35;1010.57;;;30.10;65.33
37170;BME280;23062;13.952;100.608;2023-02-08T23:59:02;1010.62;;;30.10;65.38
